createdAt,value
2019-04-04T00:00:27.003Z,99048.20
2019-04-04T00:02:56.637Z,99034.91
2019-04-04T00:05:26.315Z,99036.52
2019-04-04T00:07:55.613Z,99037.80
2019-04-04T00:10:25.322Z,99036.88
2019-04-04T00:12:54.528Z,99048.18
2019-04-04T00:15:23.791Z,99050.89
2019-04-04T00:17:53.854Z,99041.56
2019-04-04T00:20:24.010Z,99044.33
2019-04-04T00:22:53.255Z,99035.53
2019-04-04T00:25:22.510Z,99034.91
2019-04-04T00:27:51.750Z,99029.22
2019-04-04T00:30:23.580Z,99035.75
2019-04-04T00:32:53.369Z,99031.55
2019-04-04T00:35:22.607Z,99024.06
2019-04-04T00:37:51.885Z,99025.41
2019-04-04T00:40:21.469Z,99029.17
2019-04-04T00:42:50.747Z,99030.07
2019-04-04T00:45:20.039Z,99030.94
2019-04-04T00:47:49.256Z,99037.06
2019-04-04T00:50:18.878Z,99033.24
2019-04-04T00:52:48.113Z,99023.60
2019-04-04T00:55:17.367Z,99007.58
2019-04-04T00:57:48.227Z,99005.74
2019-04-04T01:00:18.080Z,99009.20
2019-04-04T01:02:47.304Z,99005.91
2019-04-04T01:05:16.521Z,98996.78
2019-04-04T01:07:47.693Z,98982.02
2019-04-04T01:10:19.063Z,98981.60
2019-04-04T01:12:48.142Z,98978.53
2019-04-04T01:15:17.907Z,98969.57
2019-04-04T01:17:47.125Z,98971.08
2019-04-04T01:20:18.114Z,98961.80
2019-04-04T01:22:47.330Z,98959.57
2019-04-04T01:25:16.565Z,98952.64
2019-04-04T01:27:45.771Z,98941.24
2019-04-04T01:30:15.413Z,98940.20
2019-04-04T01:32:46.252Z,98931.47
2019-04-04T01:35:15.541Z,98925.91
2019-04-04T01:37:45.234Z,98932.55
2019-04-04T01:40:14.460Z,98923.50
2019-04-04T01:42:43.726Z,98915.44
2019-04-04T01:45:13.726Z,98909.02
2019-04-04T01:47:43.352Z,98909.61
2019-04-04T01:50:12.669Z,98919.20
2019-04-04T01:52:41.933Z,98931.02
2019-04-04T01:55:11.490Z,98932.91
2019-04-04T01:57:40.705Z,98943.53
2019-04-04T02:00:10.853Z,98942.55
2019-04-04T02:02:40.416Z,98934.91
2019-04-04T02:05:09.755Z,98926.87
2019-04-04T02:07:39.016Z,98946.16
2019-04-04T02:10:08.355Z,98938.97
2019-04-04T02:12:39.230Z,98938.55
2019-04-04T02:15:09.050Z,98939.11
2019-04-04T02:17:38.284Z,98909.94
2019-04-04T02:20:08.083Z,98904.39
2019-04-04T02:22:37.390Z,98895.44
2019-04-04T02:25:07.025Z,98886.50
2019-04-04T02:27:37.917Z,98888.48
2019-04-04T02:30:08.121Z,98888.23
2019-04-04T02:32:37.349Z,98896.22
2019-04-04T02:35:10.293Z,98894.08
2019-04-04T02:37:38.034Z,98889.98
2019-04-04T02:40:09.003Z,98886.38
2019-04-04T02:45:10.266Z,98876.97
2019-04-04T02:47:42.636Z,98896.42
2019-04-04T02:50:12.064Z,98899.67
2019-04-04T02:52:45.683Z,98884.46
2019-04-04T02:55:12.588Z,98882.80
2019-04-04T02:57:42.520Z,98887.73
2019-04-04T03:00:12.274Z,98883.13
2019-04-04T03:02:43.174Z,98869.77
2019-04-04T03:05:12.581Z,98877.05
2019-04-04T03:07:41.840Z,98887.72
2019-04-04T03:10:15.206Z,98879.53
2019-04-04T03:12:42.331Z,98867.37
2019-04-04T03:15:11.665Z,98869.14
2019-04-04T03:17:41.305Z,98875.80
2019-04-04T03:20:10.628Z,98873.56
2019-04-04T03:22:39.895Z,98872.13
2019-04-04T03:25:09.140Z,98862.66
2019-04-04T03:27:38.365Z,98852.55
2019-04-04T03:30:13.571Z,98845.02
2019-04-04T03:32:38.907Z,98841.64
2019-04-04T03:35:08.446Z,98821.94
2019-04-04T03:37:40.561Z,98801.01
2019-04-04T03:40:08.888Z,98771.27
2019-04-04T03:42:38.100Z,98763.84
2019-04-04T03:45:07.414Z,98774.22
2019-04-04T03:47:36.631Z,98785.30
2019-04-04T03:50:08.628Z,98791.48
2019-04-04T03:52:43.313Z,98799.48
2019-04-04T03:55:09.355Z,98813.02
2019-04-04T03:57:38.610Z,98810.36
2019-04-04T04:00:08.829Z,98801.09
2019-04-04T04:02:38.058Z,98785.51
2019-04-04T04:05:23.788Z,98764.77
2019-04-04T04:07:53.444Z,98759.72
2019-04-04T04:10:22.754Z,98762.34
2019-04-04T04:12:52.468Z,98760.00
2019-04-04T04:15:22.832Z,98767.47
2019-04-04T04:17:53.408Z,98773.48
2019-04-04T04:20:23.495Z,98777.45
2019-04-04T04:22:53.261Z,98785.11
2019-04-04T04:25:23.056Z,98784.74
2019-04-04T04:27:53.942Z,98790.81
2019-04-04T04:30:23.320Z,98799.25
2019-04-04T04:32:57.648Z,98802.63
2019-04-04T04:35:26.888Z,98797.85
2019-04-04T04:37:56.140Z,98794.02
2019-04-04T04:40:25.449Z,98777.85
2019-04-04T04:42:54.718Z,98782.24
2019-04-04T04:45:24.032Z,98784.59
2019-04-04T04:47:57.079Z,98762.19
2019-04-04T04:50:24.731Z,98765.72
2019-04-04T04:52:53.975Z,98761.94
2019-04-04T04:55:24.504Z,98768.66
2019-04-04T04:57:56.356Z,98769.19
2019-04-04T05:00:27.749Z,98776.14
2019-04-04T05:02:56.522Z,98768.38
2019-04-04T05:05:25.779Z,98782.27
2019-04-04T05:07:55.214Z,98784.52
2019-04-04T05:10:24.916Z,98778.98
2019-04-04T05:12:56.269Z,98772.49
2019-04-04T05:15:25.527Z,98776.39
2019-04-04T05:17:55.198Z,98770.61
2019-04-04T05:20:25.541Z,98768.11
2019-04-04T05:22:55.446Z,98767.64
2019-04-04T05:25:25.267Z,98758.56
2019-04-04T05:27:54.613Z,98766.48
2019-04-04T05:30:23.926Z,98755.78
2019-04-04T05:32:56.351Z,98754.72
2019-04-04T05:35:24.582Z,98755.92
2019-04-04T05:37:53.839Z,98762.32
2019-04-04T05:40:24.291Z,98763.29
2019-04-04T05:42:53.567Z,98757.23
2019-04-04T05:45:22.826Z,98757.52
2019-04-04T05:47:55.090Z,98765.06
2019-04-04T05:50:23.598Z,98755.12
2019-04-04T05:52:52.895Z,98763.48
2019-04-04T05:55:22.692Z,98765.31
2019-04-04T05:57:51.940Z,98768.05
2019-04-04T06:00:21.360Z,98770.55
2019-04-04T06:02:51.429Z,98773.59
2019-04-04T06:05:50.926Z,98778.75
2019-04-04T06:08:52.136Z,98778.68
2019-04-04T06:11:26.178Z,98774.61
2019-04-04T06:13:59.021Z,98755.27
2019-04-04T06:16:28.116Z,98767.52
2019-04-04T06:18:57.348Z,98773.48
2019-04-04T06:21:27.152Z,98785.80
2019-04-04T06:23:56.755Z,98782.20
2019-04-04T06:26:25.997Z,98782.91
2019-04-04T06:28:55.699Z,98789.06
2019-04-04T06:31:26.912Z,98783.14
2019-04-04T06:33:55.883Z,98787.09
2019-04-04T06:36:25.679Z,98801.38
2019-04-04T06:38:54.974Z,98786.21
2019-04-04T06:41:24.212Z,98780.56
2019-04-04T06:43:53.923Z,98771.69
2019-04-04T06:46:27.076Z,98758.37
2019-04-04T06:48:56.295Z,98773.89
2019-04-04T06:51:31.571Z,98773.05
2019-04-04T06:54:00.921Z,98773.09
2019-04-04T06:56:32.025Z,98765.41
2019-04-04T06:59:01.608Z,98766.09
2019-04-04T07:01:30.944Z,98767.84
2019-04-04T07:04:00.294Z,98777.30
2019-04-04T07:06:30.153Z,98775.41
2019-04-04T07:08:59.444Z,98785.00
2019-04-04T07:11:28.763Z,98771.20
2019-04-04T07:13:59.073Z,98772.03
2019-04-04T07:16:28.961Z,98786.05
2019-04-04T07:18:58.257Z,98796.28
2019-04-04T07:21:27.952Z,98797.39
2019-04-04T07:23:59.533Z,98785.09
2019-04-04T07:26:28.157Z,98794.66
2019-04-04T07:28:57.919Z,98796.05
2019-04-04T07:31:27.391Z,98807.89
2019-04-04T07:33:56.679Z,98815.17
2019-04-04T07:36:26.385Z,98815.05
2019-04-04T07:38:55.627Z,98814.12
2019-04-04T07:41:24.887Z,98823.84
2019-04-04T07:43:54.174Z,98821.09
2019-04-04T07:46:23.465Z,98818.09
2019-04-04T07:48:53.137Z,98813.84
2019-04-04T07:51:22.396Z,98818.64
2019-04-04T07:53:51.690Z,98813.88
2019-04-04T07:56:21.245Z,98808.53
2019-04-04T07:58:50.539Z,98805.80
2019-04-04T08:01:19.936Z,98809.48
2019-04-04T08:03:49.581Z,98808.42
2019-04-04T08:06:18.876Z,98801.60
2019-04-04T08:08:48.190Z,98799.88
2019-04-04T08:11:18.004Z,98805.69
2019-04-04T08:13:47.356Z,98799.65
2019-04-04T08:16:16.583Z,98800.03
2019-04-04T08:18:46.286Z,98794.19
2019-04-04T08:21:16.330Z,98791.31
2019-04-04T08:23:45.660Z,98796.25
2019-04-04T08:26:15.232Z,98796.75
2019-04-04T08:28:44.511Z,98794.41
2019-04-04T08:31:13.746Z,98797.41
2019-04-04T08:33:43.366Z,98807.17
2019-04-04T08:36:12.639Z,98811.70
2019-04-04T08:38:41.891Z,98808.36
2019-04-04T08:41:11.589Z,98802.67
2019-04-04T08:43:44.400Z,98789.63
2019-04-04T08:46:20.043Z,98777.70
2019-04-04T08:48:59.434Z,98788.14
2019-04-04T08:51:29.275Z,98788.47
2019-04-04T08:54:04.333Z,98791.67
2019-04-04T08:56:41.759Z,98799.67
2019-04-04T08:59:20.791Z,98798.63
2019-04-04T09:01:53.265Z,98813.69
2019-04-04T09:04:24.189Z,98820.86
2019-04-04T09:06:54.219Z,98821.70
2019-04-04T09:09:23.545Z,98807.21
2019-04-04T09:11:53.773Z,98797.03
2019-04-04T09:14:23.397Z,98791.83
2019-04-04T09:16:53.098Z,98784.33
2019-04-04T09:22:25.090Z,98761.97
2019-04-04T09:25:01.572Z,98759.48
2019-04-04T09:27:31.044Z,98754.83
2019-04-04T09:30:05.467Z,98748.61
2019-04-04T09:32:34.848Z,98743.83
2019-04-04T09:35:04.324Z,98743.27
2019-04-04T09:37:36.617Z,98762.19
2019-04-04T09:40:09.263Z,98770.77
2019-04-04T09:42:41.356Z,98766.09
2019-04-04T09:45:10.810Z,98773.23
2019-04-04T09:47:40.068Z,98785.78
2019-04-04T09:50:10.399Z,98798.11
2019-04-04T09:52:40.660Z,98814.78
2019-04-04T09:55:10.118Z,98813.70
2019-04-04T09:57:39.753Z,98813.59
2019-04-04T10:00:12.163Z,98821.42
2019-04-04T10:02:41.705Z,98828.03
2019-04-04T10:05:11.363Z,98821.50
2019-04-04T10:07:41.354Z,98819.84
2019-04-04T10:10:12.148Z,98831.23
2019-04-04T10:12:41.726Z,98839.84
2019-04-04T10:15:11.367Z,98840.31
2019-04-04T10:17:40.686Z,98839.45
2019-04-04T10:20:10.491Z,98840.98
2019-04-04T10:22:39.704Z,98839.11
2019-04-04T10:25:09.069Z,98839.80
2019-04-04T10:27:38.738Z,98843.28
2019-04-04T10:30:08.551Z,98847.56
2019-04-04T10:32:37.897Z,98861.66
2019-04-04T10:35:07.809Z,98866.01
2019-04-04T10:37:37.036Z,98864.38
2019-04-04T10:40:09.190Z,98868.64
2019-04-04T10:42:38.409Z,98874.17
2019-04-04T10:45:08.722Z,98865.91
2019-04-04T10:47:38.634Z,98858.43
2019-04-04T10:50:08.995Z,98855.73
2019-04-04T10:52:38.265Z,98854.06
2019-04-04T10:55:08.438Z,98856.11
2019-04-04T10:57:37.680Z,98859.14
2019-04-04T11:00:08.154Z,98862.92
2019-04-04T11:02:37.795Z,98856.42
2019-04-04T11:05:07.145Z,98858.46
2019-04-04T11:07:36.378Z,98857.44
2019-04-04T11:10:07.120Z,98854.45
2019-04-04T11:12:36.357Z,98857.87
2019-04-04T11:15:06.020Z,98855.55
2019-04-04T11:17:35.692Z,98844.61
2019-04-04T11:20:08.244Z,98838.80
2019-04-04T11:22:37.467Z,98847.91
2019-04-04T11:25:06.847Z,98849.50
2019-04-04T11:27:36.178Z,98850.72
2019-04-04T11:30:08.968Z,98852.99
2019-04-04T11:32:38.330Z,98843.28
2019-04-04T11:35:07.859Z,98848.37
2019-04-04T11:37:37.506Z,98838.67
2019-04-04T11:40:06.975Z,98845.68
2019-04-04T11:42:36.250Z,98857.55
2019-04-04T11:45:06.023Z,98852.37
2019-04-04T11:47:35.287Z,98848.39
2019-04-04T11:50:06.376Z,98856.88
2019-04-04T11:52:35.969Z,98879.26
2019-04-04T11:55:05.755Z,98894.33
2019-04-04T11:57:35.019Z,98894.11
2019-04-04T12:00:08.631Z,98907.57
2019-04-04T12:02:37.881Z,98900.88
2019-04-04T12:05:07.385Z,98913.83
2019-04-04T12:07:39.563Z,98909.70
2019-04-04T12:10:09.142Z,98908.80
2019-04-04T12:12:39.070Z,98913.51
2019-04-04T12:15:09.256Z,98924.45
2019-04-04T12:17:38.522Z,98922.30
2019-04-04T12:20:08.409Z,98920.64
2019-04-04T12:22:37.687Z,98923.20
2019-04-04T12:25:07.068Z,98919.20
2019-04-04T12:27:36.679Z,98924.09
2019-04-04T12:30:10.520Z,98933.91
2019-04-04T12:32:43.617Z,98952.67
2019-04-04T12:35:13.446Z,98960.84
2019-04-04T12:37:42.707Z,98970.80
2019-04-04T12:40:20.571Z,98979.56
2019-04-04T12:42:43.578Z,98984.98
2019-04-04T12:45:13.259Z,98973.22
2019-04-04T12:47:42.519Z,98963.83
2019-04-04T12:50:12.298Z,98962.13
2019-04-04T12:52:42.535Z,98973.13
2019-04-04T12:55:11.833Z,98982.63
2019-04-04T12:57:42.489Z,98986.89
2019-04-04T13:00:11.913Z,98984.91
2019-04-04T13:02:41.192Z,98979.99
2019-04-04T13:05:10.913Z,98974.30
2019-04-04T13:07:40.132Z,98967.44
2019-04-04T13:10:11.857Z,98974.55
2019-04-04T13:12:41.587Z,98974.76
2019-04-04T13:15:11.090Z,98984.63
2019-04-04T13:17:40.565Z,98980.20
2019-04-04T13:20:10.155Z,98977.16
2019-04-04T13:22:39.407Z,98968.64
2019-04-04T13:25:10.308Z,98971.08
2019-04-04T13:27:40.181Z,98974.38
2019-04-04T13:30:11.472Z,98972.34
2019-04-04T13:32:41.050Z,98970.92
2019-04-04T13:35:10.635Z,98975.63
2019-04-04T13:37:39.932Z,98989.56
2019-04-04T13:40:09.948Z,98999.31
2019-04-04T13:42:39.217Z,98999.34
2019-04-04T13:45:09.034Z,99003.21
2019-04-04T13:47:40.260Z,99008.33
2019-04-04T13:50:12.467Z,99007.94
2019-04-04T13:52:41.645Z,99007.97
2019-04-04T13:55:11.019Z,99003.32
2019-04-04T13:57:40.310Z,99016.02
2019-04-04T14:00:10.733Z,99026.30
2019-04-04T14:02:39.969Z,99010.42
2019-04-04T14:05:11.476Z,99010.06
2019-04-04T14:07:43.424Z,99007.44
2019-04-04T14:10:11.967Z,99009.25
2019-04-04T14:12:41.434Z,98994.63
2019-04-04T14:15:11.432Z,98990.23
2019-04-04T14:17:43.518Z,98991.69
2019-04-04T14:20:11.924Z,98980.02
2019-04-04T14:22:41.605Z,98965.91
2019-04-04T14:25:10.876Z,98963.39
2019-04-04T14:27:40.111Z,98975.03
2019-04-04T14:30:11.180Z,98973.05
2019-04-04T14:32:40.477Z,98980.13
2019-04-04T14:35:10.032Z,98968.72
2019-04-04T14:37:39.655Z,98978.74
2019-04-04T14:40:09.254Z,99002.13
2019-04-04T14:42:38.576Z,99019.29
2019-04-04T14:45:08.600Z,99018.78
2019-04-04T14:47:37.957Z,99023.16
2019-04-04T14:50:07.506Z,99023.38
2019-04-04T14:52:39.485Z,99036.88
2019-04-04T14:55:08.820Z,99047.34
2019-04-04T14:57:38.158Z,99047.39
2019-04-04T15:00:09.701Z,99057.66
2019-04-04T15:05:19.841Z,99073.22
2019-04-04T15:07:49.201Z,99064.51
2019-04-04T15:10:19.121Z,99060.69
2019-04-04T15:12:48.672Z,99068.12
2019-04-04T15:15:18.076Z,99076.03
2019-04-04T15:17:47.882Z,99082.98
2019-04-04T15:20:19.118Z,99091.59
2019-04-04T15:22:48.623Z,99093.73
2019-04-04T15:25:18.473Z,99105.60
2019-04-04T15:27:47.933Z,99108.39
2019-04-04T15:30:17.471Z,99107.00
2019-04-04T15:32:47.476Z,99095.66
2019-04-04T15:35:16.841Z,99101.91
2019-04-04T15:37:46.292Z,99103.52
2019-04-04T15:40:17.422Z,99103.29
2019-04-04T15:42:46.870Z,99107.18
2019-04-04T15:45:16.540Z,99108.80
2019-04-04T15:47:46.615Z,99110.00
2019-04-04T15:50:16.487Z,99111.47
2019-04-04T15:52:45.816Z,99108.84
2019-04-04T15:55:15.628Z,99111.98
2019-04-04T15:57:45.072Z,99116.19
2019-04-04T16:00:14.789Z,99121.43
2019-04-04T16:02:44.899Z,99098.84
2019-04-04T16:05:14.910Z,99080.78
2019-04-04T16:07:44.486Z,99077.89
2019-04-04T16:10:14.510Z,99084.09
2019-04-04T16:12:44.056Z,99074.15
2019-04-04T16:15:13.831Z,99068.81
2019-04-04T16:17:43.790Z,99073.80
2019-04-04T16:20:13.808Z,99069.26
2019-04-04T16:22:43.399Z,99072.45
2019-04-04T16:25:13.458Z,99088.94
2019-04-04T16:27:43.122Z,99103.06
2019-04-04T16:30:14.767Z,99114.14
2019-04-04T16:32:45.083Z,99120.06
2019-04-04T16:35:14.439Z,99090.30
2019-04-04T16:37:43.729Z,99078.74
2019-04-04T16:40:15.396Z,99079.01
2019-04-04T16:42:45.000Z,99122.66
2019-04-04T16:45:14.596Z,99109.84
2019-04-04T16:47:47.997Z,99084.30
2019-04-04T16:50:17.979Z,99092.91
2019-04-04T16:52:47.577Z,99096.28
2019-04-04T16:55:17.747Z,99108.24
2019-04-04T16:57:47.408Z,99141.21
2019-04-04T17:00:20.629Z,99162.95
2019-04-04T17:02:49.228Z,99167.22
2019-04-04T17:05:18.968Z,99176.47
2019-04-04T17:07:48.594Z,99179.13
2019-04-04T17:10:18.883Z,99178.11
2019-04-04T17:17:00.118Z,99203.82
2019-04-04T17:19:30.540Z,99217.94
2019-04-04T17:22:08.626Z,99225.36
2019-04-04T17:24:38.943Z,99211.18
2019-04-04T17:27:08.915Z,99195.59
2019-04-04T17:29:39.207Z,99196.88
2019-04-04T17:32:13.967Z,99189.20
2019-04-04T17:34:44.339Z,99189.80
2019-04-04T17:37:17.712Z,99180.19
2019-04-04T17:39:48.066Z,99164.17
2019-04-04T17:42:29.119Z,99170.95
2019-04-04T17:45:01.157Z,99171.19
2019-04-04T17:47:42.315Z,99173.61
2019-04-04T17:50:12.340Z,99165.84
2019-04-04T17:53:15.613Z,99169.27
2019-04-04T17:55:58.615Z,99180.90
2019-04-04T17:58:29.806Z,99186.02
2019-04-04T18:01:55.489Z,99194.73
2019-04-04T18:04:48.565Z,99202.39
2019-04-04T18:07:50.007Z,99214.69
2019-04-04T18:10:23.399Z,99231.07
2019-04-04T18:12:56.622Z,99237.98
2019-04-04T18:16:00.421Z,99237.06
2019-04-04T18:18:32.107Z,99232.77
2019-04-04T18:21:02.584Z,99241.27
2019-04-04T18:23:34.463Z,99252.08
2019-04-04T18:26:07.428Z,99253.22
2019-04-04T18:28:57.769Z,99247.14
2019-04-04T18:32:08.701Z,99247.69
2019-04-04T18:35:18.553Z,99250.61
2019-04-04T18:37:55.505Z,99249.09
2019-04-04T18:40:33.995Z,99258.99
2019-04-04T18:46:50.034Z,99271.30
2019-04-04T18:49:19.963Z,99266.26
2019-04-04T18:51:49.629Z,99275.20
2019-04-04T18:54:19.681Z,99286.79
2019-04-04T18:56:49.446Z,99282.67
2019-04-04T18:59:19.126Z,99278.78
2019-04-04T19:01:49.365Z,99272.14
2019-04-04T19:04:21.048Z,99280.16
2019-04-04T19:06:50.959Z,99291.95
2019-04-04T19:09:20.729Z,99291.67
2019-04-04T19:11:53.216Z,99289.16
2019-04-04T19:14:29.954Z,99295.42
2019-04-04T19:16:57.306Z,99295.03
2019-04-04T19:19:29.188Z,99301.50
2019-04-04T19:21:59.292Z,99306.71
2019-04-04T19:24:29.099Z,99303.91
2019-04-04T19:26:59.033Z,99300.74
2019-04-04T19:29:31.477Z,99312.98
2019-04-04T19:32:02.696Z,99319.98
2019-04-04T19:34:34.331Z,99319.69
2019-04-04T19:37:08.219Z,99329.51
2019-04-04T19:39:38.432Z,99335.00
2019-04-04T19:42:08.073Z,99341.88
2019-04-04T19:44:38.292Z,99343.38
2019-04-04T19:47:08.041Z,99345.85
2019-04-04T19:49:38.957Z,99341.03
2019-04-04T19:52:10.920Z,99340.35
2019-04-04T19:54:40.624Z,99330.02
2019-04-04T19:57:10.257Z,99325.81
2019-04-04T19:59:40.462Z,99325.49
2019-04-04T20:02:10.187Z,99331.50
2019-04-04T20:04:40.015Z,99337.37
2019-04-04T20:07:10.202Z,99336.85
2019-04-04T20:09:39.940Z,99337.59
2019-04-04T20:12:09.697Z,99336.38
2019-04-04T20:14:39.896Z,99336.20
2019-04-04T20:24:21.970Z,99340.81
2019-04-04T20:26:54.581Z,99350.09
2019-04-04T20:29:25.815Z,99351.95
2019-04-04T20:31:56.704Z,99358.80
2019-04-04T20:34:26.471Z,99360.05
2019-04-04T20:36:56.614Z,99365.02
2019-04-04T20:39:27.771Z,99365.31
2019-04-04T20:41:57.443Z,99361.17
2019-04-04T20:44:27.156Z,99359.69
2019-04-04T20:46:58.378Z,99360.08
2019-04-04T20:49:27.989Z,99350.25
2019-04-04T20:51:57.646Z,99351.23
2019-04-04T20:54:30.685Z,99349.01
2019-04-04T20:57:02.886Z,99343.59
2019-04-04T20:59:33.877Z,99344.67
2019-04-04T21:02:07.868Z,99335.38
2019-04-04T21:04:38.239Z,99342.68
2019-04-04T21:07:07.548Z,99345.10
2019-04-04T21:09:37.926Z,99348.42
2019-04-04T21:12:07.197Z,99351.50
2019-04-04T21:14:39.616Z,99359.84
2019-04-04T21:17:08.882Z,99377.45
2019-04-04T21:19:38.176Z,99382.45
2019-04-04T21:22:08.027Z,99386.00
2019-04-04T21:24:39.186Z,99387.47
2019-04-04T21:27:13.986Z,99379.86
2019-04-04T21:29:43.262Z,99384.99
2019-04-04T21:32:12.978Z,99388.64
2019-04-04T21:34:45.876Z,99395.20
2019-04-04T21:37:18.976Z,99403.53
2019-04-04T21:39:48.525Z,99390.55
2019-04-04T21:42:17.801Z,99395.93
2019-04-04T21:44:47.106Z,99399.64
2019-04-04T21:47:16.746Z,99390.37
2019-04-04T21:49:45.978Z,99386.13
2019-04-04T21:52:17.007Z,99400.44
2019-04-04T21:54:46.283Z,99398.73
2019-04-04T21:57:15.981Z,99404.16
2019-04-04T21:59:47.713Z,99400.39
2019-04-04T22:02:17.090Z,99405.67
2019-04-04T22:04:46.683Z,99399.97
2019-04-04T22:07:18.430Z,99404.88
2019-04-04T22:09:47.693Z,99400.99
2019-04-04T22:12:17.451Z,99402.20
2019-04-04T22:14:49.685Z,99408.04
2019-04-04T22:17:26.450Z,99406.22
2019-04-04T22:20:15.348Z,99403.31
2019-04-04T22:22:44.569Z,99407.42
2019-04-04T22:25:17.273Z,99407.19
2019-04-04T22:27:52.329Z,99409.30
2019-04-04T22:30:21.662Z,99412.20
2019-04-04T22:32:51.983Z,99418.02
2019-04-04T22:35:21.698Z,99422.59
2019-04-04T22:37:51.044Z,99423.53
2019-04-04T22:40:22.704Z,99415.41
2019-04-04T22:42:51.942Z,99424.88
2019-04-04T22:45:21.598Z,99432.94
2019-04-04T22:47:52.511Z,99438.75
2019-04-04T22:50:21.775Z,99433.62
2019-04-04T22:52:51.055Z,99437.28
2019-04-04T22:55:21.614Z,99433.91
2019-04-04T22:57:51.157Z,99446.91
2019-04-04T23:00:21.450Z,99458.84
2019-04-04T23:02:50.708Z,99466.67
2019-04-04T23:05:32.396Z,99467.86
2019-04-04T23:08:07.610Z,99462.58
2019-04-04T23:10:37.346Z,99461.05
2019-04-04T23:13:14.740Z,99463.41
2019-04-04T23:15:52.575Z,99468.84
2019-04-04T23:18:23.888Z,99459.58
2019-04-04T23:20:53.334Z,99456.52
2019-04-04T23:23:25.512Z,99459.08
2019-04-04T23:25:55.875Z,99451.14
2019-04-04T23:28:25.116Z,99448.30
2019-04-04T23:30:54.406Z,99450.28
2019-04-04T23:33:24.077Z,99450.42
2019-04-04T23:35:53.345Z,99448.53
2019-04-04T23:38:28.542Z,99437.61
2019-04-04T23:40:57.817Z,99439.67
2019-04-04T23:43:29.447Z,99433.53
2019-04-04T23:45:58.805Z,99431.92
2019-04-04T23:48:30.838Z,99434.88
2019-04-04T23:51:01.646Z,99426.08
2019-04-04T23:53:31.950Z,99426.44
2019-04-04T23:56:01.928Z,99425.12
2019-04-04T23:58:46.811Z,99420.45
